DAL1421 KLAX-KSFO
Flight info
| Callsign | DAL1421 |
|---|---|
| Flight time | 1h 5m |
| Altitude | 32000 |
| Route | SUMMR2 STOKD SERFR SERFR4 |
| Aircraft | A320/M-SDE3FGHIRWY/LB1 |
Departure
| Time | 2026-05-04 17:33 |
|---|---|
| Airport | Los Angeles International Airport (KLAX) |
Arrival
| Time | 2026-05-04 18:38 |
|---|---|
| Airport | San Francisco International Airport (KSFO) |
| Time | Latitude | Longitude | Altitude | Speed | Heading |
|---|---|---|---|---|---|
| 2026-05-04 17:01 | 33.94606 | -118.40330 | 93 ft | 0 kts | 248° |
| 2026-05-04 17:23 | 33.94623 | -118.40291 | 92 ft | 2 kts | 249° |
| 2026-05-04 17:24 | 33.94632 | -118.40263 | 94 ft | 4 kts | 262° |
| 2026-05-04 17:24 | 33.94675 | -118.40249 | 94 ft | 4 kts | 355° |
| 2026-05-04 17:25 | 33.94683 | -118.40250 | 94 ft | 0 kts | 353° |
| 2026-05-04 17:28 | 33.94695 | -118.40252 | 94 ft | 6 kts | 353° |
| 2026-05-04 17:29 | 33.94869 | -118.40287 | 93 ft | 10 kts | 12° |
| 2026-05-04 17:29 | 33.94912 | -118.40122 | 94 ft | 6 kts | 83° |
| 2026-05-04 17:30 | 33.94924 | -118.40001 | 93 ft | 4 kts | 83° |
| 2026-05-04 17:31 | 33.94932 | -118.39954 | 93 ft | 2 kts | 72° |
| 2026-05-04 17:31 | 33.95040 | -118.39951 | 94 ft | 8 kts | 273° |
| 2026-05-04 17:32 | 33.94957 | -118.40772 | 98 ft | 110 kts | 263° |
| 2026-05-04 17:33 | 33.94579 | -118.44489 | 1517 ft | 155 kts | 263° |
| 2026-05-04 17:33 | 33.94451 | -118.45793 | 2134 ft | 163 kts | 263° |
| 2026-05-04 17:34 | 33.94211 | -118.50764 | 3299 ft | 235 kts | 267° |
| 2026-05-04 17:34 | 33.94098 | -118.52791 | 4014 ft | 247 kts | 265° |
| 2026-05-04 17:35 | 33.93590 | -118.59142 | 6722 ft | 260 kts | 265° |
| 2026-05-04 17:35 | 33.93238 | -118.63528 | 8459 ft | 266 kts | 264° |
| 2026-05-04 17:35 | 33.93062 | -118.65757 | 9342 ft | 269 kts | 264° |
| 2026-05-04 17:36 | 33.92886 | -118.68012 | 10190 ft | 272 kts | 264° |
| 2026-05-04 17:36 | 33.92705 | -118.70366 | 10529 ft | 294 kts | 264° |
| 2026-05-04 17:36 | 33.92508 | -118.72904 | 10879 ft | 312 kts | 264° |
| 2026-05-04 17:36 | 33.92302 | -118.75530 | 11542 ft | 318 kts | 264° |
| 2026-05-04 17:37 | 33.92092 | -118.78192 | 12304 ft | 321 kts | 264° |
| 2026-05-04 17:37 | 33.91881 | -118.80885 | 13045 ft | 325 kts | 263° |
| 2026-05-04 17:37 | 33.91710 | -118.83617 | 13782 ft | 329 kts | 268° |
| 2026-05-04 17:37 | 33.91783 | -118.86387 | 14457 ft | 332 kts | 270° |
| 2026-05-04 17:38 | 33.91871 | -118.89171 | 15167 ft | 333 kts | 270° |
| 2026-05-04 17:38 | 33.91957 | -118.91957 | 15896 ft | 334 kts | 269° |
| 2026-05-04 17:38 | 33.92041 | -118.94751 | 16644 ft | 334 kts | 269° |
| 2026-05-04 17:38 | 33.92124 | -118.97552 | 17393 ft | 335 kts | 268° |
| 2026-05-04 17:39 | 33.93072 | -119.03088 | 18707 ft | 349 kts | 288° |
| 2026-05-04 17:39 | 33.94282 | -119.05662 | 19288 ft | 356 kts | 295° |
| 2026-05-04 17:39 | 33.95603 | -119.08199 | 19863 ft | 358 kts | 294° |
| 2026-05-04 17:40 | 33.96929 | -119.10750 | 20430 ft | 361 kts | 294° |
| 2026-05-04 17:40 | 33.98262 | -119.13321 | 20999 ft | 363 kts | 294° |
| 2026-05-04 17:40 | 33.99599 | -119.15907 | 21550 ft | 366 kts | 294° |
| 2026-05-04 17:40 | 34.01175 | -119.18384 | 22103 ft | 379 kts | 304° |
| 2026-05-04 17:41 | 34.03179 | -119.20535 | 22659 ft | 394 kts | 314° |
| 2026-05-04 17:41 | 34.05427 | -119.22462 | 23208 ft | 398 kts | 314° |
| 2026-05-04 17:41 | 34.07692 | -119.24397 | 23738 ft | 401 kts | 314° |
| 2026-05-04 17:41 | 34.09969 | -119.26346 | 24201 ft | 403 kts | 314° |
| 2026-05-04 17:42 | 34.12261 | -119.28312 | 24633 ft | 406 kts | 313° |
| 2026-05-04 17:42 | 34.14570 | -119.30298 | 25018 ft | 409 kts | 313° |
| 2026-05-04 17:42 | 34.16889 | -119.32297 | 25383 ft | 412 kts | 313° |
| 2026-05-04 17:42 | 34.19228 | -119.34315 | 25746 ft | 415 kts | 313° |
| 2026-05-04 17:43 | 34.21583 | -119.36348 | 26125 ft | 417 kts | 313° |
| 2026-05-04 17:43 | 34.23952 | -119.38397 | 26479 ft | 420 kts | 312° |
| 2026-05-04 17:43 | 34.26338 | -119.40461 | 26822 ft | 423 kts | 312° |
| 2026-05-04 17:43 | 34.28742 | -119.42541 | 27163 ft | 426 kts | 312° |
| 2026-05-04 17:44 | 34.31161 | -119.44635 | 27491 ft | 429 kts | 312° |
| 2026-05-04 17:44 | 34.33595 | -119.46747 | 27829 ft | 432 kts | 312° |
| 2026-05-04 17:44 | 34.36078 | -119.48905 | 28188 ft | 435 kts | 311° |
| 2026-05-04 17:44 | 34.38508 | -119.51017 | 28510 ft | 438 kts | 311° |
| 2026-05-04 17:45 | 34.40972 | -119.53248 | 28844 ft | 433 kts | 307° |
| 2026-05-04 17:45 | 34.43110 | -119.55700 | 29156 ft | 427 kts | 302° |
| 2026-05-04 17:45 | 34.45233 | -119.58304 | 29460 ft | 430 kts | 302° |
| 2026-05-04 17:45 | 34.47339 | -119.60895 | 29767 ft | 433 kts | 302° |
| 2026-05-04 17:46 | 34.49457 | -119.63503 | 30061 ft | 435 kts | 302° |
| 2026-05-04 17:46 | 34.51591 | -119.66133 | 30275 ft | 438 kts | 302° |
| 2026-05-04 17:46 | 34.53699 | -119.68731 | 30537 ft | 439 kts | 301° |
| 2026-05-04 17:46 | 34.55873 | -119.71413 | 30795 ft | 440 kts | 301° |
| 2026-05-04 17:47 | 34.58021 | -119.74064 | 31064 ft | 442 kts | 301° |
| 2026-05-04 17:47 | 34.60180 | -119.76731 | 31328 ft | 443 kts | 301° |
| 2026-05-04 17:47 | 34.62340 | -119.79401 | 31577 ft | 443 kts | 301° |
| 2026-05-04 17:47 | 34.64470 | -119.82031 | 31864 ft | 442 kts | 301° |
| 2026-05-04 17:48 | 34.66655 | -119.84722 | 32032 ft | 438 kts | 301° |
| 2026-05-04 17:48 | 34.68769 | -119.87310 | 32048 ft | 427 kts | 301° |
| 2026-05-04 17:48 | 34.72888 | -119.92393 | 32056 ft | 419 kts | 300° |
| 2026-05-04 17:49 | 34.76949 | -119.97472 | 32053 ft | 418 kts | 301° |
| 2026-05-04 17:49 | 34.80972 | -120.02502 | 32060 ft | 418 kts | 302° |
| 2026-05-04 17:50 | 34.85065 | -120.07601 | 32070 ft | 419 kts | 302° |
| 2026-05-04 17:50 | 34.89116 | -120.12651 | 32093 ft | 419 kts | 302° |
| 2026-05-04 17:51 | 34.93187 | -120.17740 | 32099 ft | 419 kts | 302° |
| 2026-05-04 17:51 | 34.97276 | -120.22856 | 32089 ft | 418 kts | 302° |
| 2026-05-04 17:52 | 35.01333 | -120.27937 | 32082 ft | 418 kts | 302° |
| 2026-05-04 17:52 | 35.05386 | -120.33025 | 32076 ft | 418 kts | 302° |
| 2026-05-04 17:53 | 35.09445 | -120.38104 | 32087 ft | 419 kts | 303° |
| 2026-05-04 17:53 | 35.13711 | -120.43007 | 32105 ft | 423 kts | 306° |
| 2026-05-04 17:54 | 35.18103 | -120.47797 | 32084 ft | 423 kts | 306° |
| 2026-05-04 17:54 | 35.22468 | -120.52596 | 32077 ft | 422 kts | 305° |
| 2026-05-04 17:55 | 35.26787 | -120.57438 | 32096 ft | 421 kts | 305° |
| 2026-05-04 17:55 | 35.31087 | -120.62303 | 32091 ft | 421 kts | 305° |
| 2026-05-04 17:56 | 35.35378 | -120.67157 | 32083 ft | 419 kts | 305° |
| 2026-05-04 17:56 | 35.39670 | -120.72000 | 32084 ft | 420 kts | 305° |
| 2026-05-04 17:57 | 35.43963 | -120.76849 | 32099 ft | 419 kts | 305° |
| 2026-05-04 17:57 | 35.48258 | -120.81683 | 32110 ft | 422 kts | 307° |
| 2026-05-04 17:58 | 35.52178 | -120.85376 | 32107 ft | 428 kts | 310° |
| 2026-05-04 17:58 | 35.56937 | -120.89777 | 32130 ft | 428 kts | 310° |
| 2026-05-04 17:59 | 35.61683 | -120.94192 | 32103 ft | 428 kts | 311° |
| 2026-05-04 18:00 | 35.68806 | -121.00818 | 32089 ft | 428 kts | 311° |
| 2026-05-04 18:00 | 35.73566 | -121.05246 | 32096 ft | 429 kts | 311° |
| 2026-05-04 18:01 | 35.77551 | -121.08962 | 32106 ft | 429 kts | 311° |
| 2026-05-04 18:01 | 35.83112 | -121.14170 | 32091 ft | 430 kts | 311° |
| 2026-05-04 18:02 | 35.90245 | -121.20864 | 32087 ft | 429 kts | 312° |
| 2026-05-04 18:02 | 35.95002 | -121.25324 | 32120 ft | 430 kts | 314° |
| 2026-05-04 18:03 | 35.99774 | -121.29807 | 31992 ft | 438 kts | 314° |
| 2026-05-04 18:03 | 36.02220 | -121.32117 | 31743 ft | 444 kts | 314° |
| 2026-05-04 18:03 | 36.04672 | -121.34433 | 31498 ft | 444 kts | 314° |
| 2026-05-04 18:04 | 36.07159 | -121.36711 | 31254 ft | 447 kts | 318° |
| 2026-05-04 18:04 | 36.09788 | -121.38766 | 31032 ft | 446 kts | 321° |
| 2026-05-04 18:04 | 36.14993 | -121.42804 | 29943 ft | 438 kts | 322° |
| 2026-05-04 18:05 | 36.17553 | -121.44794 | 29351 ft | 432 kts | 322° |
| 2026-05-04 18:05 | 36.20078 | -121.46761 | 28825 ft | 425 kts | 322° |
| 2026-05-04 18:05 | 36.22567 | -121.48706 | 28300 ft | 420 kts | 322° |
| 2026-05-04 18:05 | 36.25019 | -121.50627 | 27783 ft | 414 kts | 323° |
| 2026-05-04 18:06 | 36.29830 | -121.54402 | 26782 ft | 405 kts | 324° |
| 2026-05-04 18:06 | 36.32200 | -121.56262 | 26297 ft | 401 kts | 324° |
| 2026-05-04 18:06 | 36.34540 | -121.58103 | 25823 ft | 397 kts | 324° |
| 2026-05-04 18:07 | 36.36858 | -121.59930 | 25342 ft | 393 kts | 325° |
| 2026-05-04 18:07 | 36.39154 | -121.61738 | 24900 ft | 390 kts | 325° |
| 2026-05-04 18:07 | 36.41437 | -121.63533 | 24451 ft | 386 kts | 326° |
| 2026-05-04 18:07 | 36.43701 | -121.65311 | 24014 ft | 383 kts | 327° |
| 2026-05-04 18:08 | 36.45945 | -121.67079 | 23581 ft | 380 kts | 327° |
| 2026-05-04 18:08 | 36.48161 | -121.68829 | 23126 ft | 375 kts | 328° |
| 2026-05-04 18:08 | 36.50349 | -121.70555 | 22722 ft | 370 kts | 328° |
| 2026-05-04 18:08 | 36.52505 | -121.72263 | 22310 ft | 365 kts | 328° |
| 2026-05-04 18:09 | 36.56746 | -121.75632 | 21482 ft | 357 kts | 328° |
| 2026-05-04 18:09 | 36.60914 | -121.78922 | 20636 ft | 353 kts | 329° |
| 2026-05-04 18:10 | 36.62984 | -121.80556 | 20220 ft | 352 kts | 329° |
| 2026-05-04 18:10 | 36.65044 | -121.82188 | 19789 ft | 350 kts | 329° |
| 2026-05-04 18:10 | 36.67097 | -121.83815 | 19340 ft | 349 kts | 329° |
| 2026-05-04 18:10 | 36.69140 | -121.85436 | 18890 ft | 349 kts | 329° |
| 2026-05-04 18:11 | 36.71187 | -121.87060 | 18445 ft | 348 kts | 329° |
| 2026-05-04 18:11 | 36.73256 | -121.88616 | 17963 ft | 347 kts | 335° |
| 2026-05-04 18:11 | 36.75477 | -121.89740 | 17516 ft | 343 kts | 345° |
| 2026-05-04 18:11 | 36.77783 | -121.90433 | 17073 ft | 340 kts | 349° |
| 2026-05-04 18:12 | 36.80090 | -121.91078 | 16583 ft | 340 kts | 349° |
| 2026-05-04 18:12 | 36.82401 | -121.91726 | 16120 ft | 340 kts | 349° |
| 2026-05-04 18:12 | 36.84705 | -121.92370 | 15680 ft | 339 kts | 349° |
| 2026-05-04 18:12 | 36.87001 | -121.93012 | 15244 ft | 338 kts | 349° |
| 2026-05-04 18:13 | 36.89294 | -121.93652 | 14803 ft | 337 kts | 349° |
| 2026-05-04 18:13 | 36.91584 | -121.94290 | 14359 ft | 337 kts | 349° |
| 2026-05-04 18:13 | 36.96145 | -121.95605 | 13404 ft | 336 kts | 346° |
| 2026-05-04 18:14 | 36.98388 | -121.96410 | 12945 ft | 334 kts | 345° |
| 2026-05-04 18:14 | 37.00597 | -121.97281 | 12483 ft | 332 kts | 343° |
| 2026-05-04 18:14 | 37.02790 | -121.98177 | 12020 ft | 331 kts | 343° |
| 2026-05-04 18:15 | 37.07150 | -121.99944 | 11074 ft | 328 kts | 343° |
| 2026-05-04 18:15 | 37.11469 | -122.01664 | 10343 ft | 319 kts | 343° |
| 2026-05-04 18:15 | 37.13541 | -122.02478 | 10221 ft | 307 kts | 343° |
| 2026-05-04 18:16 | 37.15543 | -122.03260 | 10047 ft | 297 kts | 344° |
| 2026-05-04 18:16 | 37.17497 | -122.04019 | 9922 ft | 292 kts | 344° |
| 2026-05-04 18:16 | 37.19421 | -122.04770 | 9781 ft | 286 kts | 344° |
| 2026-05-04 18:17 | 37.23193 | -122.06246 | 8945 ft | 286 kts | 343° |
| 2026-05-04 18:17 | 37.25073 | -122.06982 | 8631 ft | 281 kts | 343° |
| 2026-05-04 18:17 | 37.28808 | -122.08451 | 7838 ft | 280 kts | 343° |
| 2026-05-04 18:18 | 37.30658 | -122.09179 | 7426 ft | 280 kts | 343° |
| 2026-05-04 18:18 | 37.32509 | -122.09905 | 7077 ft | 278 kts | 343° |
| 2026-05-04 18:18 | 37.34341 | -122.10623 | 6703 ft | 276 kts | 343° |
| 2026-05-04 18:18 | 37.36174 | -122.11344 | 6262 ft | 267 kts | 342° |
| 2026-05-04 18:19 | 37.39532 | -122.12615 | 5618 ft | 242 kts | 344° |
| 2026-05-04 18:19 | 37.41140 | -122.13167 | 5331 ft | 238 kts | 345° |
| 2026-05-04 18:19 | 37.42726 | -122.13702 | 5048 ft | 234 kts | 344° |
| 2026-05-04 18:20 | 37.44287 | -122.14228 | 4770 ft | 231 kts | 344° |
| 2026-05-04 18:20 | 37.45847 | -122.14752 | 4485 ft | 228 kts | 345° |
| 2026-05-04 18:20 | 37.47358 | -122.15248 | 4215 ft | 227 kts | 345° |
| 2026-05-04 18:20 | 37.48880 | -122.15744 | 3940 ft | 225 kts | 345° |
| 2026-05-04 18:21 | 37.50389 | -122.16237 | 3667 ft | 223 kts | 344° |
| 2026-05-04 18:21 | 37.51879 | -122.16724 | 3398 ft | 220 kts | 343° |
| 2026-05-04 18:21 | 37.53252 | -122.17506 | 3136 ft | 215 kts | 321° |
| 2026-05-04 18:21 | 37.54251 | -122.18855 | 2999 ft | 202 kts | 300° |
| 2026-05-04 18:22 | 37.54910 | -122.20362 | 2766 ft | 195 kts | 295° |
| 2026-05-04 18:22 | 37.55523 | -122.21845 | 2549 ft | 187 kts | 296° |
| 2026-05-04 18:22 | 37.56129 | -122.23295 | 2261 ft | 182 kts | 296° |
| 2026-05-04 18:22 | 37.56717 | -122.24692 | 2013 ft | 179 kts | 296° |
| 2026-05-04 18:23 | 37.57298 | -122.26073 | 1768 ft | 176 kts | 296° |
| 2026-05-04 18:23 | 37.57854 | -122.27391 | 1524 ft | 162 kts | 296° |
| 2026-05-04 18:23 | 37.58349 | -122.28566 | 1337 ft | 143 kts | 296° |
| 2026-05-04 18:23 | 37.58796 | -122.29630 | 1156 ft | 137 kts | 297° |
| 2026-05-04 18:24 | 37.59237 | -122.30678 | 971 ft | 133 kts | 296° |
| 2026-05-04 18:24 | 37.59676 | -122.31725 | 791 ft | 133 kts | 296° |
| 2026-05-04 18:24 | 37.60110 | -122.32749 | 596 ft | 132 kts | 296° |
| 2026-05-04 18:24 | 37.60542 | -122.33776 | 415 ft | 134 kts | 295° |
| 2026-05-04 18:25 | 37.60973 | -122.34811 | 237 ft | 133 kts | 295° |
| 2026-05-04 18:25 | 37.61400 | -122.35833 | 61 ft | 132 kts | 295° |
| 2026-05-04 18:25 | 37.61804 | -122.36789 | 54 ft | 120 kts | 295° |
| 2026-05-04 18:25 | 37.62244 | -122.37827 | 566 ft | 144 kts | 296° |
| 2026-05-04 18:26 | 37.62728 | -122.38981 | 1430 ft | 150 kts | 296° |
| 2026-05-04 18:26 | 37.63229 | -122.40182 | 2117 ft | 162 kts | 296° |
| 2026-05-04 18:26 | 37.63788 | -122.41529 | 2425 ft | 185 kts | 296° |
| 2026-05-04 18:26 | 37.64427 | -122.43063 | 2850 ft | 206 kts | 296° |
| 2026-05-04 18:27 | 37.65104 | -122.44685 | 3635 ft | 212 kts | 296° |
| 2026-05-04 18:27 | 37.65489 | -122.46480 | 4403 ft | 216 kts | 266° |
| 2026-05-04 18:27 | 37.65048 | -122.48304 | 4892 ft | 221 kts | 235° |
| 2026-05-04 18:27 | 37.63906 | -122.49535 | 4982 ft | 218 kts | 202° |
| 2026-05-04 18:28 | 37.62413 | -122.49737 | 5006 ft | 220 kts | 167° |
| 2026-05-04 18:28 | 37.61032 | -122.48909 | 5008 ft | 223 kts | 146° |
| 2026-05-04 18:28 | 37.59782 | -122.47754 | 5006 ft | 222 kts | 143° |
| 2026-05-04 18:28 | 37.58557 | -122.46577 | 5022 ft | 222 kts | 143° |
| 2026-05-04 18:29 | 37.57468 | -122.45219 | 5024 ft | 221 kts | 127° |
| 2026-05-04 18:29 | 37.56606 | -122.43611 | 5011 ft | 221 kts | 123° |
| 2026-05-04 18:29 | 37.55785 | -122.41973 | 5011 ft | 221 kts | 123° |
| 2026-05-04 18:29 | 37.54971 | -122.40331 | 5011 ft | 221 kts | 123° |
| 2026-05-04 18:30 | 37.53350 | -122.37040 | 5010 ft | 221 kts | 122° |
| 2026-05-04 18:30 | 37.52531 | -122.35391 | 4996 ft | 222 kts | 123° |
| 2026-05-04 18:30 | 37.51713 | -122.33741 | 4998 ft | 223 kts | 123° |
| 2026-05-04 18:31 | 37.50908 | -122.32073 | 5000 ft | 222 kts | 123° |
| 2026-05-04 18:31 | 37.50112 | -122.30402 | 5002 ft | 222 kts | 123° |
| 2026-05-04 18:31 | 37.49331 | -122.28727 | 5004 ft | 222 kts | 123° |
| 2026-05-04 18:31 | 37.48559 | -122.27049 | 5000 ft | 221 kts | 122° |
| 2026-05-04 18:32 | 37.47779 | -122.25375 | 4999 ft | 222 kts | 122° |
| 2026-05-04 18:32 | 37.46996 | -122.23699 | 4997 ft | 222 kts | 116° |
| 2026-05-04 18:32 | 37.46708 | -122.21802 | 4856 ft | 225 kts | 83° |
| 2026-05-04 18:32 | 37.47295 | -122.20016 | 4592 ft | 225 kts | 49° |
| 2026-05-04 18:33 | 37.48556 | -122.18862 | 4330 ft | 226 kts | 26° |
| 2026-05-04 18:33 | 37.49985 | -122.18034 | 4068 ft | 226 kts | 23° |
| 2026-05-04 18:33 | 37.51441 | -122.17329 | 3819 ft | 221 kts | 9° |
| 2026-05-04 18:33 | 37.52888 | -122.17497 | 3552 ft | 204 kts | 335° |
| 2026-05-04 18:34 | 37.54017 | -122.18500 | 3149 ft | 196 kts | 307° |
| 2026-05-04 18:34 | 37.54698 | -122.19916 | 2890 ft | 185 kts | 296° |
| 2026-05-04 18:34 | 37.55097 | -122.20861 | 2705 ft | 183 kts | 296° |
| 2026-05-04 18:34 | 37.55890 | -122.22735 | 2359 ft | 181 kts | 296° |
| 2026-05-04 18:35 | 37.56279 | -122.23658 | 2193 ft | 179 kts | 296° |
| 2026-05-04 18:35 | 37.56863 | -122.25043 | 1956 ft | 178 kts | 296° |
| 2026-05-04 18:35 | 37.57424 | -122.26371 | 1719 ft | 165 kts | 296° |
| 2026-05-04 18:35 | 37.57936 | -122.27586 | 1491 ft | 148 kts | 296° |
| 2026-05-04 18:36 | 37.58397 | -122.28681 | 1314 ft | 138 kts | 296° |
| 2026-05-04 18:36 | 37.58837 | -122.29726 | 1134 ft | 133 kts | 296° |
| 2026-05-04 18:36 | 37.59266 | -122.30747 | 961 ft | 131 kts | 296° |
| 2026-05-04 18:36 | 37.59691 | -122.31757 | 779 ft | 131 kts | 296° |
| 2026-05-04 18:37 | 37.60120 | -122.32778 | 608 ft | 132 kts | 295° |
| 2026-05-04 18:37 | 37.60551 | -122.33804 | 406 ft | 133 kts | 295° |
| 2026-05-04 18:37 | 37.60983 | -122.34833 | 247 ft | 132 kts | 295° |
| 2026-05-04 18:37 | 37.61411 | -122.35856 | 58 ft | 131 kts | 295° |
| 2026-05-04 18:38 | 37.61801 | -122.36786 | 22 ft | 102 kts | 298° |
| 2026-05-04 18:38 | 37.62052 | -122.37383 | 22 ft | 53 kts | 298° |
| 2026-05-04 18:38 | 37.62145 | -122.37636 | 22 ft | 20 kts | 273° |
| 2026-05-04 18:38 | 37.62078 | -122.37777 | 24 ft | 19 kts | 229° |
| 2026-05-04 18:39 | 37.61987 | -122.37906 | 23 ft | 20 kts | 228° |
| 2026-05-04 18:39 | 37.61922 | -122.37947 | 25 ft | 11 kts | 162° |
| 2026-05-04 18:39 | 37.61858 | -122.37900 | 22 ft | 10 kts | 147° |
| 2026-05-04 18:39 | 37.61819 | -122.37835 | 22 ft | 11 kts | 110° |
| 2026-05-04 18:40 | 37.61775 | -122.37692 | 22 ft | 22 kts | 111° |
| 2026-05-04 18:40 | 37.61720 | -122.37515 | 22 ft | 21 kts | 113° |
| 2026-05-04 18:40 | 37.61623 | -122.37453 | 23 ft | 18 kts | 198° |
| 2026-05-04 18:40 | 37.61506 | -122.37527 | 22 ft | 20 kts | 207° |
| 2026-05-04 18:41 | 37.61379 | -122.37612 | 23 ft | 22 kts | 208° |
| 2026-05-04 18:41 | 37.61287 | -122.37729 | 22 ft | 17 kts | 255° |
| 2026-05-04 18:41 | 37.61317 | -122.37877 | 22 ft | 19 kts | 301° |
| 2026-05-04 18:41 | 37.61371 | -122.38008 | 22 ft | 17 kts | 297° |
| 2026-05-04 18:42 | 37.61409 | -122.38113 | 22 ft | 10 kts | 276° |
| 2026-05-04 18:42 | 37.61388 | -122.38147 | 24 ft | 0 kts | 210° |
| 2026-05-04 18:46 | 37.61368 | -122.38163 | 22 ft | 8 kts | 214° |
| 2026-05-04 18:47 | 37.61357 | -122.38241 | 22 ft | 10 kts | 297° |
| 2026-05-04 18:47 | 37.61389 | -122.38304 | 22 ft | 6 kts | 338° |
| 2026-05-04 18:47 | 37.61420 | -122.38290 | 22 ft | 0 kts | 27° |
| 2026-05-04 18:47 | 37.61426 | -122.38285 | 24 ft | 4 kts | 27° |
| 2026-05-04 18:48 | 37.61434 | -122.38280 | 22 ft | 0 kts | 27° |